Time;durP1;ratioP1;P1;durP2;ratioP2;P2;SDS_P1;SDS_P2;PMS_P1;PMS_P2;Temp;Humidity;BMP_temperature;BMP_pressure;BME280_temperature;BME280_humidity;BME280_pressure;Samples;Min_cycle;Max_cycle;Signal;HPM_P1;HPM_P2
2023/03/10 00:02:19;;;;;;;55.42;51.92;;;;;;;;;;5058812;28;20200;-80
2023/03/10 00:04:50;;;;;;;58.58;53.72;;;;;;;;;;5067963;28;20234;-80
2023/03/10 00:07:17;;;;;;;59.03;54.53;;;;;;;;;;5079107;28;20231;-79
2023/03/10 00:09:44;;;;;;;57.28;53.45;;;;;;;;;;5078736;28;20745;-80
2023/03/10 00:12:11;;;;;;;56.20;52.40;;;;;;;;;;5078950;28;20260;-80
2023/03/10 00:14:40;;;;;;;56.50;52.80;;;;;;;;;;5078764;28;20237;-80
2023/03/10 00:17:07;;;;;;;58.05;53.75;;;;;;;;;;5079572;28;20372;-80
2023/03/10 00:19:34;;;;;;;56.90;52.78;;;;;;;;;;5079276;28;20267;-80
2023/03/10 00:22:02;;;;;;;54.25;50.65;;;;;;;;;;5079106;28;20203;-80
2023/03/10 00:24:29;;;;;;;55.80;51.92;;;;;;;;;;5078638;28;20203;-80
2023/03/10 00:26:56;;;;;;;56.25;52.85;;;;;;;;;;5077904;28;20216;-80
2023/03/10 00:29:23;;;;;;;57.70;52.65;;;;;;;;;;5078608;28;20643;-80
2023/03/10 00:31:52;;;;;;;56.10;51.92;;;;;;;;;;5078447;28;20207;-80
2023/03/10 00:34:19;;;;;;;54.53;50.60;;;;;;;;;;5078358;28;20207;-80
2023/03/10 00:36:46;;;;;;;54.20;50.42;;;;;;;;;;5078990;28;20281;-80
2023/03/10 00:39:12;;;;;;;57.45;52.95;;;;;;;;;;5078637;28;20207;-80
2023/03/10 00:41:39;;;;;;;57.45;52.58;;;;;;;;;;5078802;28;20201;-80
2023/03/10 00:44:08;;;;;;;59.38;55.05;;;;;;;;;;5078447;28;20204;-80
2023/03/10 00:46:37;;;;;;;58.60;54.22;;;;;;;;;;5078527;28;20251;-80
2023/03/10 00:49:05;;;;;;;57.90;53.17;;;;;;;;;;5078357;28;20234;-80
2023/03/10 00:51:33;;;;;;;59.78;54.38;;;;;;;;;;5077663;28;20199;-80
2023/03/10 00:54:00;;;;;;;56.27;51.73;;;;;;;;;;5078547;28;20205;-80
2023/03/10 00:56:27;;;;;;;60.72;54.45;;;;;;;;;;5078498;28;20482;-80
2023/03/10 00:58:56;;;;;;;60.22;55.92;;;;;;;;;;5078371;28;20230;-80
2023/03/10 01:01:24;;;;;;;58.40;54.08;;;;;;;;;;5078432;28;20207;-81
2023/03/10 01:03:51;;;;;;;59.28;54.95;;;;;;;;;;5078701;28;20302;-80
2023/03/10 01:06:20;;;;;;;59.78;54.72;;;;;;;;;;5077350;28;20222;-81
2023/03/10 01:08:47;;;;;;;60.30;55.40;;;;;;;;;;5078084;28;20224;-80
2023/03/10 01:11:14;;;;;;;56.65;52.95;;;;;;;;;;5078613;28;20496;-81
2023/03/10 01:13:41;;;;;;;57.55;53.50;;;;;;;;;;5077762;28;20212;-80
2023/03/10 01:16:09;;;;;;;57.08;52.75;;;;;;;;;;5078580;28;20339;-81
2023/03/10 01:18:36;;;;;;;59.00;54.70;;;;;;;;;;5078884;28;20233;-80
2023/03/10 01:21:03;;;;;;;57.15;52.80;;;;;;;;;;5078676;28;20208;-80
2023/03/10 01:23:31;;;;;;;56.95;52.75;;;;;;;;;;5078703;28;20255;-80
2023/03/10 01:25:58;;;;;;;56.42;51.83;;;;;;;;;;5077288;28;20285;-80
2023/03/10 01:28:25;;;;;;;56.57;52.63;;;;;;;;;;5078342;28;20623;-80
2023/03/10 01:30:52;;;;;;;56.17;52.28;;;;;;;;;;5078501;28;20526;-80
2023/03/10 01:33:19;;;;;;;54.53;51.22;;;;;;;;;;5077690;28;20209;-80
2023/03/10 01:35:46;;;;;;;59.28;53.83;;;;;;;;;;5078009;28;20228;-80
2023/03/10 01:38:13;;;;;;;58.50;54.33;;;;;;;;;;5080105;28;20199;-80
2023/03/10 01:40:47;;;;;;;58.47;54.07;;;;;;;;;;5082290;28;20206;-80
2023/03/10 01:43:16;;;;;;;55.20;51.30;;;;;;;;;;5081397;28;20419;-80
2023/03/10 01:46:00;;;;;;;55.63;51.53;;;;;;;;;;5082276;28;20476;-80
2023/03/10 01:48:28;;;;;;;56.63;52.73;;;;;;;;;;5051956;28;20574;-80
2023/03/10 01:50:56;;;;;;;55.30;51.63;;;;;;;;;;5081743;28;20459;-80
2023/03/10 01:53:23;;;;;;;56.63;52.70;;;;;;;;;;5081468;28;20451;-80
2023/03/10 01:55:53;;;;;;;55.97;52.20;;;;;;;;;;5082135;28;20491;-80
2023/03/10 01:58:21;;;;;;;56.23;52.03;;;;;;;;;;5083169;28;20464;-80
2023/03/10 02:00:48;;;;;;;54.73;51.23;;;;;;;;;;5081703;28;20428;-80
2023/03/10 02:03:18;;;;;;;56.03;52.33;;;;;;;;;;5081701;28;20450;-80
2023/03/10 02:05:46;;;;;;;55.33;51.10;;;;;;;;;;5081122;28;20474;-80
2023/03/10 02:08:13;;;;;;;55.57;51.87;;;;;;;;;;5081630;28;20243;-80
2023/03/10 02:10:40;;;;;;;56.13;52.20;;;;;;;;;;5081659;28;20790;-80
2023/03/10 02:13:08;;;;;;;57.40;53.57;;;;;;;;;;5081013;28;20451;-80
2023/03/10 02:15:36;;;;;;;56.43;52.20;;;;;;;;;;5080890;28;20987;-80
2023/03/10 02:18:03;;;;;;;56.28;52.22;;;;;;;;;;5081603;28;20449;-80
2023/03/10 02:20:34;;;;;;;57.73;53.77;;;;;;;;;;5080979;28;20199;-80
2023/03/10 02:23:01;;;;;;;57.95;53.78;;;;;;;;;;5081430;28;20447;-80
2023/03/10 02:25:33;;;;;;;54.47;51.17;;;;;;;;;;5081277;28;20236;-80
2023/03/10 02:28:01;;;;;;;51.07;47.33;;;;;;;;;;5081725;28;20430;-80
2023/03/10 02:30:31;;;;;;;51.67;48.83;;;;;;;;;;5082025;28;20446;-80
2023/03/10 02:32:59;;;;;;;50.03;46.93;;;;;;;;;;5080426;28;20198;-80
2023/03/10 02:35:26;;;;;;;49.60;46.83;;;;;;;;;;5080617;28;20458;-81
2023/03/10 02:37:53;;;;;;;47.53;44.93;;;;;;;;;;5080908;28;20460;-81
2023/03/10 02:40:28;;;;;;;49.50;46.70;;;;;;;;;;5081336;28;20447;-80
2023/03/10 02:42:56;;;;;;;47.50;45.10;;;;;;;;;;5080379;28;20447;-80
2023/03/10 02:45:24;;;;;;;45.47;42.73;;;;;;;;;;5081150;28;20480;-80
2023/03/10 02:47:51;;;;;;;46.10;43.17;;;;;;;;;;5079012;28;20453;-80
2023/03/10 02:50:19;;;;;;;43.17;40.77;;;;;;;;;;5080553;28;20482;-81
2023/03/10 02:52:48;;;;;;;43.77;41.47;;;;;;;;;;5080051;28;20468;-81
2023/03/10 02:55:15;;;;;;;43.67;41.57;;;;;;;;;;5080761;28;20432;-80
2023/03/10 02:57:42;;;;;;;43.20;40.80;;;;;;;;;;5080195;28;20731;-80
2023/03/10 03:00:10;;;;;;;40.23;38.43;;;;;;;;;;5081017;28;20444;-80
2023/03/10 03:02:39;;;;;;;42.07;39.80;;;;;;;;;;5080656;28;20458;-80
2023/03/10 03:05:06;;;;;;;40.20;38.33;;;;;;;;;;5081064;28;20511;-79
2023/03/10 03:07:33;;;;;;;40.77;38.57;;;;;;;;;;5080357;28;20445;-80
2023/03/10 03:10:00;;;;;;;42.77;40.33;;;;;;;;;;5080845;28;20459;-80
2023/03/10 03:12:27;;;;;;;39.07;37.27;;;;;;;;;;5080791;28;20417;-80
2023/03/10 03:14:54;;;;;;;41.20;39.10;;;;;;;;;;5081120;28;20432;-80
2023/03/10 03:17:21;;;;;;;39.37;37.47;;;;;;;;;;5080084;28;20536;-80
2023/03/10 03:19:49;;;;;;;39.07;37.27;;;;;;;;;;5084379;28;20446;-81
2023/03/10 03:22:16;;;;;;;41.57;39.57;;;;;;;;;;5093701;28;20475;-81
2023/03/10 03:24:43;;;;;;;40.87;38.87;;;;;;;;;;5094262;28;20789;-80
2023/03/10 03:27:10;;;;;;;40.43;38.50;;;;;;;;;;5084209;28;20801;-81
2023/03/10 03:29:37;;;;;;;39.37;37.37;;;;;;;;;;5081107;28;20449;-80
2023/03/10 03:32:04;;;;;;;42.70;40.40;;;;;;;;;;5081043;28;20478;-80
2023/03/10 03:34:31;;;;;;;43.20;40.80;;;;;;;;;;5080632;28;20410;-80
2023/03/10 03:37:00;;;;;;;43.23;40.73;;;;;;;;;;5079004;28;20462;-79
2023/03/10 03:39:27;;;;;;;42.40;40.00;;;;;;;;;;5080647;28;20786;-80
2023/03/10 03:41:56;;;;;;;43.00;40.60;;;;;;;;;;5079849;28;20502;-80
2023/03/10 03:44:23;;;;;;;47.80;45.00;;;;;;;;;;5080051;28;20800;-80
2023/03/10 03:46:50;;;;;;;46.47;43.77;;;;;;;;;;5080105;28;20533;-80
2023/03/10 03:49:17;;;;;;;44.90;42.30;;;;;;;;;;5079489;28;20455;-80
2023/03/10 03:51:43;;;;;;;48.13;45.07;;;;;;;;;;5079743;28;20443;-80
2023/03/10 03:54:12;;;;;;;46.27;43.70;;;;;;;;;;5079956;28;20418;-80
2023/03/10 03:56:39;;;;;;;46.33;43.50;;;;;;;;;;5079953;28;20442;-80
2023/03/10 03:59:06;;;;;;;48.93;46.10;;;;;;;;;;5080536;28;20776;-80
2023/03/10 04:01:33;;;;;;;44.77;42.53;;;;;;;;;;5078868;28;20740;-80
2023/03/10 04:04:00;;;;;;;49.23;46.23;;;;;;;;;;5079974;28;20426;-80
2023/03/10 04:06:27;;;;;;;41.77;39.17;;;;;;;;;;5078215;28;20478;-80
2023/03/10 04:08:54;;;;;;;42.70;39.90;;;;;;;;;;5079515;28;20548;-80
2023/03/10 04:11:22;;;;;;;42.40;39.50;;;;;;;;;;5079361;28;20451;-80
2023/03/10 04:13:49;;;;;;;43.47;40.70;;;;;;;;;;5078959;28;20450;-80
2023/03/10 04:16:16;;;;;;;54.50;50.00;;;;;;;;;;5078381;28;20433;-79
2023/03/10 04:18:43;;;;;;;47.20;44.10;;;;;;;;;;5079209;28;20564;-80
2023/03/10 04:21:10;;;;;;;80.47;67.95;;;;;;;;;;5078679;28;20466;-81
2023/03/10 04:23:41;;;;;;;64.63;58.87;;;;;;;;;;5079229;28;20653;-80
2023/03/10 04:26:08;;;;;;;50.23;46.43;;;;;;;;;;5078368;28;21013;-80
2023/03/10 04:28:36;;;;;;;47.80;44.40;;;;;;;;;;5079288;28;20422;-80
2023/03/10 04:31:03;;;;;;;51.90;48.27;;;;;;;;;;5079112;28;20436;-80
2023/03/10 04:33:31;;;;;;;50.67;46.77;;;;;;;;;;5078501;28;20449;-80
2023/03/10 04:35:58;;;;;;;52.83;48.83;;;;;;;;;;5078291;28;20486;-80
2023/03/10 04:38:25;;;;;;;53.27;49.10;;;;;;;;;;5079093;28;20480;-80
2023/03/10 04:40:55;;;;;;;56.93;52.53;;;;;;;;;;5078329;28;20448;-80
2023/03/10 04:43:22;;;;;;;51.77;48.00;;;;;;;;;;5078103;28;20417;-80
2023/03/10 04:45:50;;;;;;;52.00;47.85;;;;;;;;;;5077645;28;20462;-80
2023/03/10 04:48:17;;;;;;;51.87;47.97;;;;;;;;;;5078601;28;20282;-79
2023/03/10 04:50:44;;;;;;;53.63;48.87;;;;;;;;;;5078795;28;20457;-80
2023/03/10 04:53:11;;;;;;;62.90;57.35;;;;;;;;;;5078438;28;20505;-80
2023/03/10 04:55:38;;;;;;;53.07;48.80;;;;;;;;;;5078672;28;20211;-80
2023/03/10 04:58:05;;;;;;;53.17;48.67;;;;;;;;;;5078530;28;20483;-80
2023/03/10 05:00:32;;;;;;;55.05;50.15;;;;;;;;;;5078451;28;20461;-80
2023/03/10 05:03:00;;;;;;;54.50;49.97;;;;;;;;;;5078292;28;20231;-80
2023/03/10 05:05:27;;;;;;;56.65;52.05;;;;;;;;;;5078679;28;20846;-80
2023/03/10 05:07:55;;;;;;;54.33;49.40;;;;;;;;;;5078637;28;20238;-80
2023/03/10 05:10:22;;;;;;;54.08;49.47;;;;;;;;;;5077931;28;20230;-80
2023/03/10 05:12:49;;;;;;;55.80;50.43;;;;;;;;;;5077423;28;20606;-80
2023/03/10 05:15:16;;;;;;;54.28;49.47;;;;;;;;;;5078175;28;20450;-80
2023/03/10 05:17:43;;;;;;;51.93;47.90;;;;;;;;;;5079008;28;20209;-79
2023/03/10 05:20:12;;;;;;;51.95;47.67;;;;;;;;;;5079248;28;20496;-80
2023/03/10 05:22:39;;;;;;;53.45;48.70;;;;;;;;;;5077868;28;20576;-80
2023/03/10 05:25:09;;;;;;;55.87;49.93;;;;;;;;;;5077751;28;20261;-80
2023/03/10 05:27:36;;;;;;;58.33;52.47;;;;;;;;;;5078240;28;20971;-80
2023/03/10 05:30:04;;;;;;;56.40;51.40;;;;;;;;;;5078188;28;20252;-80
2023/03/10 05:32:31;;;;;;;56.87;51.67;;;;;;;;;;5078337;28;20452;-80
2023/03/10 05:34:58;;;;;;;57.63;52.37;;;;;;;;;;5078663;28;20445;-80
2023/03/10 05:37:26;;;;;;;62.42;55.63;;;;;;;;;;5077569;28;20450;-79
2023/03/10 05:39:53;;;;;;;56.67;51.50;;;;;;;;;;5077304;28;20229;-79
2023/03/10 05:42:20;;;;;;;62.00;55.93;;;;;;;;;;5075278;28;20427;-79
2023/03/10 05:44:47;;;;;;;56.93;51.53;;;;;;;;;;5077983;28;20488;-80
2023/03/10 05:47:17;;;;;;;57.70;52.70;;;;;;;;;;5077499;28;20443;-80
2023/03/10 05:49:44;;;;;;;61.57;55.50;;;;;;;;;;5077200;28;20535;-81
2023/03/10 05:52:11;;;;;;;60.80;55.08;;;;;;;;;;5077610;28;20432;-80
2023/03/10 05:54:40;;;;;;;61.22;55.35;;;;;;;;;;5077093;28;20580;-80
2023/03/10 05:57:07;;;;;;;76.73;55.53;;;;;;;;;;5076957;28;20635;-80
2023/03/10 05:59:34;;;;;;;67.77;55.40;;;;;;;;;;5077416;28;20434;-79
2023/03/10 06:02:01;;;;;;;60.57;54.73;;;;;;;;;;5077259;28;20426;-80
2023/03/10 06:04:31;;;;;;;60.00;54.40;;;;;;;;;;5078076;28;20449;-80
2023/03/10 06:06:59;;;;;;;67.15;56.20;;;;;;;;;;5076818;28;20475;-80
2023/03/10 06:09:26;;;;;;;58.53;53.03;;;;;;;;;;5077888;28;20270;-80
2023/03/10 06:11:55;;;;;;;67.17;59.30;;;;;;;;;;5076956;28;20427;-80
2023/03/10 06:14:22;;;;;;;64.13;57.22;;;;;;;;;;5077242;28;20518;-80
2023/03/10 06:16:50;;;;;;;82.43;60.37;;;;;;;;;;5076856;28;20225;-80
2023/03/10 06:19:17;;;;;;;65.70;59.22;;;;;;;;;;5078595;28;20783;-80
2023/03/10 06:21:44;;;;;;;62.90;55.40;;;;;;;;;;5076321;28;20283;-80
2023/03/10 06:24:11;;;;;;;61.73;56.40;;;;;;;;;;5079488;28;20436;-80
2023/03/10 06:26:38;;;;;;;64.23;57.83;;;;;;;;;;5081408;28;20450;-80
2023/03/10 06:29:07;;;;;;;59.57;53.90;;;;;;;;;;5081768;28;20439;-79
2023/03/10 06:31:34;;;;;;;60.33;54.43;;;;;;;;;;5080906;28;20512;-80
2023/03/10 06:34:01;;;;;;;61.93;55.50;;;;;;;;;;5081650;28;20427;-80
2023/03/10 06:36:30;;;;;;;60.37;54.10;;;;;;;;;;5080613;28;20514;-80
2023/03/10 06:38:57;;;;;;;66.97;57.07;;;;;;;;;;5080160;28;20454;-77
2023/03/10 06:41:26;;;;;;;63.37;56.30;;;;;;;;;;5075900;28;20418;-77
2023/03/10 06:43:53;;;;;;;82.43;55.83;;;;;;;;;;5076541;28;20425;-77
2023/03/10 06:46:22;;;;;;;62.73;53.83;;;;;;;;;;5078245;28;20288;-80
2023/03/10 06:48:50;;;;;;;60.97;54.73;;;;;;;;;;5080844;28;20437;-79
2023/03/10 06:51:18;;;;;;;64.67;55.73;;;;;;;;;;5080077;28;20491;-81
2023/03/10 06:53:45;;;;;;;63.87;55.50;;;;;;;;;;5075754;28;20470;-77
2023/03/10 06:56:13;;;;;;;64.47;58.10;;;;;;;;;;5075973;28;20441;-76
2023/03/10 06:58:40;;;;;;;64.53;57.43;;;;;;;;;;5075779;28;20451;-77
2023/03/10 07:01:08;;;;;;;64.63;56.80;;;;;;;;;;5075775;28;20500;-76
2023/03/10 07:03:36;;;;;;;61.10;55.10;;;;;;;;;;5075234;28;20447;-76
2023/03/10 07:06:04;;;;;;;60.60;53.90;;;;;;;;;;5075247;28;20537;-77
2023/03/10 07:08:31;;;;;;;111.60;55.90;;;;;;;;;;5076110;28;20446;-76
2023/03/10 07:10:58;;;;;;;104.27;59.10;;;;;;;;;;5075952;28;20504;-76
2023/03/10 07:13:25;;;;;;;59.57;53.03;;;;;;;;;;5073608;28;20909;-76
2023/03/10 07:15:52;;;;;;;67.83;53.43;;;;;;;;;;5075721;28;20449;-77
2023/03/10 07:18:19;;;;;;;64.53;53.43;;;;;;;;;;5075568;28;20908;-76
2023/03/10 07:20:48;;;;;;;94.50;54.13;;;;;;;;;;5076697;28;20441;-76
2023/03/10 07:23:15;;;;;;;75.47;55.20;;;;;;;;;;5074283;28;20943;-76
2023/03/10 07:25:42;;;;;;;67.50;55.73;;;;;;;;;;5075395;28;20499;-76
2023/03/10 07:28:09;;;;;;;86.20;55.57;;;;;;;;;;5075632;28;20490;-76
2023/03/10 07:30:37;;;;;;;62.17;55.73;;;;;;;;;;5075647;28;20466;-76
2023/03/10 07:33:04;;;;;;;59.17;52.53;;;;;;;;;;5074703;28;20937;-77
2023/03/10 07:35:31;;;;;;;57.47;52.60;;;;;;;;;;5074961;28;20555;-77
2023/03/10 07:37:59;;;;;;;59.83;54.17;;;;;;;;;;5075150;28;20432;-77
2023/03/10 07:40:26;;;;;;;57.27;52.63;;;;;;;;;;5079919;28;20801;-79
2023/03/10 07:42:54;;;;;;;58.07;53.73;;;;;;;;;;5075474;28;20850;-78
2023/03/10 07:45:21;;;;;;;55.27;50.77;;;;;;;;;;5075423;28;20954;-78
2023/03/10 07:47:48;;;;;;;57.33;53.17;;;;;;;;;;5075961;28;20504;-78
2023/03/10 07:50:15;;;;;;;52.77;48.87;;;;;;;;;;5075959;28;20483;-78
2023/03/10 07:52:42;;;;;;;53.37;49.80;;;;;;;;;;5074508;28;20459;-78
2023/03/10 07:55:11;;;;;;;58.57;53.90;;;;;;;;;;5075562;28;20470;-78
2023/03/10 07:57:38;;;;;;;54.70;50.87;;;;;;;;;;5075838;28;20451;-77
2023/03/10 08:00:05;;;;;;;53.97;50.05;;;;;;;;;;5075253;28;20500;-78
2023/03/10 08:02:32;;;;;;;49.40;46.17;;;;;;;;;;5074559;28;20207;-77
2023/03/10 08:04:59;;;;;;;51.53;47.90;;;;;;;;;;5074308;28;20466;-77
2023/03/10 08:07:27;;;;;;;49.10;45.70;;;;;;;;;;5074979;28;20541;-77
2023/03/10 08:09:54;;;;;;;50.53;47.33;;;;;;;;;;5075562;28;20437;-86
2023/03/10 08:12:22;;;;;;;50.87;47.53;;;;;;;;;;5074399;28;20458;-76
2023/03/10 08:14:50;;;;;;;50.10;46.57;;;;;;;;;;5074696;28;20420;-75
2023/03/10 08:17:18;;;;;;;48.23;44.77;;;;;;;;;;5075174;28;20521;-75
2023/03/10 08:19:45;;;;;;;52.90;48.37;;;;;;;;;;5074763;28;20544;-76
2023/03/10 08:22:13;;;;;;;50.67;46.80;;;;;;;;;;5074029;28;20453;-75
2023/03/10 08:24:40;;;;;;;49.50;46.33;;;;;;;;;;5074018;28;20466;-76
2023/03/10 08:27:07;;;;;;;49.80;46.37;;;;;;;;;;5074241;28;20494;-75
2023/03/10 08:29:35;;;;;;;49.20;46.00;;;;;;;;;;5074275;28;20420;-75
2023/03/10 08:32:03;;;;;;;50.30;46.17;;;;;;;;;;5073358;28;20814;-75
2023/03/10 08:34:32;;;;;;;47.50;44.20;;;;;;;;;;5073482;28;20890;-75
2023/03/10 08:36:59;;;;;;;50.33;46.80;;;;;;;;;;5073827;28;20942;-75
2023/03/10 08:39:27;;;;;;;49.10;45.50;;;;;;;;;;5074279;28;20498;-75
2023/03/10 08:41:53;;;;;;;51.00;47.30;;;;;;;;;;5072959;28;20201;-76
2023/03/10 08:44:21;;;;;;;49.60;45.90;;;;;;;;;;5074328;28;20513;-75
2023/03/10 08:46:49;;;;;;;49.33;45.90;;;;;;;;;;5073653;28;20477;-75
2023/03/10 08:49:17;;;;;;;49.87;46.37;;;;;;;;;;5074114;28;20421;-75
2023/03/10 08:51:44;;;;;;;49.70;46.23;;;;;;;;;;5073389;28;20536;-75
2023/03/10 08:54:12;;;;;;;52.37;48.83;;;;;;;;;;5073730;28;20475;-76
2023/03/10 08:56:39;;;;;;;51.63;47.70;;;;;;;;;;5073973;28;20440;-75
2023/03/10 08:59:06;;;;;;;48.50;45.40;;;;;;;;;;5073854;28;20479;-75
2023/03/10 09:01:34;;;;;;;49.70;46.37;;;;;;;;;;5072889;28;20980;-75
2023/03/10 09:04:03;;;;;;;48.83;45.07;;;;;;;;;;5074065;28;20431;-75
2023/03/10 09:06:31;;;;;;;49.57;46.00;;;;;;;;;;5073923;28;20466;-75
2023/03/10 09:08:58;;;;;;;48.60;45.23;;;;;;;;;;5073941;28;20824;-73
2023/03/10 09:11:26;;;;;;;51.37;47.63;;;;;;;;;;5073113;28;20482;-72
2023/03/10 09:13:54;;;;;;;49.37;46.27;;;;;;;;;;5073490;28;20925;-73
2023/03/10 09:16:21;;;;;;;50.40;47.30;;;;;;;;;;5073473;28;20471;-73
2023/03/10 09:18:48;;;;;;;51.47;47.97;;;;;;;;;;5073522;28;20915;-73
2023/03/10 09:21:18;;;;;;;52.20;48.30;;;;;;;;;;5073453;28;20447;-74
2023/03/10 09:23:46;;;;;;;51.00;47.47;;;;;;;;;;5073379;28;20451;-73
2023/03/10 09:26:13;;;;;;;50.83;47.47;;;;;;;;;;5072777;28;20512;-73
2023/03/10 09:28:40;;;;;;;49.57;46.30;;;;;;;;;;5073756;28;20454;-73
2023/03/10 09:31:07;;;;;;;49.70;46.40;;;;;;;;;;5073320;28;20494;-73
2023/03/10 09:33:34;;;;;;;51.07;47.57;;;;;;;;;;5072908;28;20866;-74
2023/03/10 09:36:02;;;;;;;50.93;47.20;;;;;;;;;;5073420;28;20468;-73
2023/03/10 09:38:30;;;;;;;47.73;44.33;;;;;;;;;;5073637;28;20404;-73
2023/03/10 09:41:02;;;;;;;49.80;46.60;;;;;;;;;;5073601;28;20496;-73
2023/03/10 09:43:31;;;;;;;49.00;45.50;;;;;;;;;;5073041;28;20403;-73
2023/03/10 09:46:03;;;;;;;50.03;46.60;;;;;;;;;;5072481;28;20482;-73
2023/03/10 09:48:37;;;;;;;48.90;45.60;;;;;;;;;;5073444;28;20459;-73
2023/03/10 09:51:06;;;;;;;47.57;44.47;;;;;;;;;;5073085;28;21011;-73
2023/03/10 09:53:52;;;;;;;48.60;45.20;;;;;;;;;;5072799;28;20420;-73
2023/03/10 09:56:21;;;;;;;46.73;43.73;;;;;;;;;;5073414;28;20446;-74
2023/03/10 09:58:50;;;;;;;45.33;42.50;;;;;;;;;;5074808;28;20452;-73
2023/03/10 10:01:20;;;;;;;46.90;43.47;;;;;;;;;;5077078;28;20439;-74
2023/03/10 10:03:48;;;;;;;43.60;40.60;;;;;;;;;;5076152;28;20456;-73
2023/03/10 10:06:17;;;;;;;42.13;39.43;;;;;;;;;;5077070;28;20447;-73
2023/03/10 10:08:47;;;;;;;43.30;40.60;;;;;;;;;;5076212;28;20443;-73
2023/03/10 10:11:15;;;;;;;42.67;39.83;;;;;;;;;;5076605;28;20454;-74
2023/03/10 10:13:44;;;;;;;42.27;39.57;;;;;;;;;;5076888;28;20487;-73
2023/03/10 10:16:18;;;;;;;41.83;39.33;;;;;;;;;;5076853;28;20442;-75
2023/03/10 10:18:48;;;;;;;40.00;37.60;;;;;;;;;;5077034;28;20496;-74
2023/03/10 10:21:19;;;;;;;42.77;40.17;;;;;;;;;;5076731;28;20427;-74
2023/03/10 10:23:48;;;;;;;43.37;40.47;;;;;;;;;;5076748;28;20459;-73
2023/03/10 10:26:15;;;;;;;40.23;37.73;;;;;;;;;;5076339;28;20477;-74
2023/03/10 10:28:45;;;;;;;41.60;39.07;;;;;;;;;;5076853;28;20578;-73
2023/03/10 10:31:13;;;;;;;40.20;37.87;;;;;;;;;;5076426;28;20466;-74
2023/03/10 10:33:52;;;;;;;39.97;37.53;;;;;;;;;;5067065;28;20506;-80
2023/03/10 10:36:19;;;;;;;42.47;39.60;;;;;;;;;;5060058;28;20479;-82
2023/03/10 10:38:49;;;;;;;41.40;39.00;;;;;;;;;;5060258;28;20433;-80
2023/03/10 10:41:18;;;;;;;40.37;38.00;;;;;;;;;;5060777;28;20416;-81
2023/03/10 10:43:46;;;;;;;38.70;36.30;;;;;;;;;;5060341;28;20452;-74
2023/03/10 10:46:14;;;;;;;39.00;36.77;;;;;;;;;;5055814;28;20484;-73
2023/03/10 10:48:44;;;;;;;41.57;39.27;;;;;;;;;;5068955;28;20427;-74
2023/03/10 10:51:20;;;;;;;38.13;35.83;;;;;;;;;;5076220;28;20456;-75
2023/03/10 10:53:47;;;;;;;37.83;35.43;;;;;;;;;;5076327;28;20414;-75
2023/03/10 10:56:15;;;;;;;35.63;33.63;;;;;;;;;;5076170;28;20450;-74
2023/03/10 10:58:42;;;;;;;36.33;34.20;;;;;;;;;;5075806;28;20822;-75
2023/03/10 11:01:12;;;;;;;35.30;33.30;;;;;;;;;;5071898;28;20441;-74
2023/03/10 11:03:40;;;;;;;35.03;32.93;;;;;;;;;;5070488;28;20485;-80
2023/03/10 11:06:14;;;;;;;36.90;34.33;;;;;;;;;;5058553;28;20530;-74
2023/03/10 11:08:44;;;;;;;41.60;39.20;;;;;;;;;;5057727;28;20452;-79
2023/03/10 11:11:19;;;;;;;44.40;41.73;;;;;;;;;;5058623;28;20487;-82
2023/03/10 11:13:54;;;;;;;44.47;41.07;;;;;;;;;;5060494;28;20412;-81
2023/03/10 11:16:24;;;;;;;45.67;42.40;;;;;;;;;;5057734;28;20984;-80
2023/03/10 11:18:54;;;;;;;47.80;44.50;;;;;;;;;;5057100;28;20451;-75
2023/03/10 11:21:24;;;;;;;49.47;46.17;;;;;;;;;;5057098;28;20443;-76
2023/03/10 11:23:56;;;;;;;50.90;47.00;;;;;;;;;;5056857;28;20407;-77
2023/03/10 11:26:29;;;;;;;49.27;45.87;;;;;;;;;;5057896;28;20477;-76
2023/03/10 11:28:58;;;;;;;51.40;47.90;;;;;;;;;;5055565;28;20962;-76
2023/03/10 11:31:32;;;;;;;51.20;47.60;;;;;;;;;;5055073;28;20539;-77
2023/03/10 11:34:03;;;;;;;51.03;47.60;;;;;;;;;;5054968;28;20467;-75
2023/03/10 11:36:35;;;;;;;52.63;48.47;;;;;;;;;;5055246;28;20520;-76
2023/03/10 11:39:06;;;;;;;48.60;45.37;;;;;;;;;;5054973;28;20429;-75
2023/03/10 11:41:37;;;;;;;51.30;47.50;;;;;;;;;;5054358;28;20430;-76
2023/03/10 11:44:07;;;;;;;49.97;46.50;;;;;;;;;;5054656;28;20404;-76
2023/03/10 11:46:43;;;;;;;50.30;47.00;;;;;;;;;;5063971;28;20461;-82
2023/03/10 11:49:11;;;;;;;52.47;48.77;;;;;;;;;;5071535;28;20442;-82
2023/03/10 11:51:40;;;;;;;68.53;61.43;;;;;;;;;;5077923;28;20963;-76
2023/03/10 11:54:12;;;;;;;70.00;64.70;;;;;;;;;;5075404;28;20420;-75
2023/03/10 11:56:40;;;;;;;75.20;70.00;;;;;;;;;;5075090;28;20522;-76
2023/03/10 11:59:08;;;;;;;75.10;69.80;;;;;;;;;;5075121;28;20428;-75
2023/03/10 12:01:40;;;;;;;72.53;67.80;;;;;;;;;;5074628;28;20443;-75
2023/03/10 12:04:12;;;;;;;73.30;68.20;;;;;;;;;;5075032;28;20414;-75
2023/03/10 12:06:43;;;;;;;74.73;69.63;;;;;;;;;;5075045;28;20468;-75
2023/03/10 12:09:16;;;;;;;68.37;64.17;;;;;;;;;;5075410;28;20453;-75
2023/03/10 12:11:43;;;;;;;73.53;68.57;;;;;;;;;;5074463;28;20462;-76
2023/03/10 12:14:12;;;;;;;72.60;67.43;;;;;;;;;;5072746;28;20471;-76
2023/03/10 12:16:41;;;;;;;70.10;64.97;;;;;;;;;;5053953;28;20485;-75
2023/03/10 12:19:08;;;;;;;71.50;66.63;;;;;;;;;;5054763;28;20425;-75
2023/03/10 12:21:35;;;;;;;69.10;64.30;;;;;;;;;;5053437;28;20840;-76
2023/03/10 12:24:03;;;;;;;66.50;62.27;;;;;;;;;;5054734;28;20425;-75
2023/03/10 12:26:50;;;;;;;63.43;59.80;;;;;;;;;;5054138;28;20497;-75
2023/03/10 12:29:31;;;;;;;63.73;60.03;;;;;;;;;;5054335;28;21027;-75
2023/03/10 12:31:59;;;;;;;64.30;60.20;;;;;;;;;;5054005;28;20811;-76
2023/03/10 12:34:28;;;;;;;60.27;56.43;;;;;;;;;;5054273;28;20453;-75
2023/03/10 12:36:56;;;;;;;57.53;53.70;;;;;;;;;;5054326;28;20515;-75
2023/03/10 12:39:31;;;;;;;58.80;54.70;;;;;;;;;;5054371;28;20443;-75
2023/03/10 12:41:58;;;;;;;57.83;54.00;;;;;;;;;;5054434;28;20455;-76
2023/03/10 12:44:43;;;;;;;54.00;50.60;;;;;;;;;;5054483;28;20454;-75
2023/03/10 12:47:16;;;;;;;55.33;51.70;;;;;;;;;;5054445;28;20444;-79
2023/03/10 12:49:46;;;;;;;53.70;49.83;;;;;;;;;;5054423;28;20411;-74
2023/03/10 12:52:19;;;;;;;57.07;53.03;;;;;;;;;;5053048;28;20869;-75
2023/03/10 12:54:50;;;;;;;54.10;50.40;;;;;;;;;;5057088;28;20419;-75
2023/03/10 12:57:19;;;;;;;57.37;53.20;;;;;;;;;;5052978;28;20821;-75
2023/03/10 12:59:50;;;;;;;54.73;51.13;;;;;;;;;;5052217;28;20421;-75
2023/03/10 13:02:23;;;;;;;59.03;55.10;;;;;;;;;;5051698;28;20877;-76
2023/03/10 13:04:50;;;;;;;56.43;52.27;;;;;;;;;;5053646;28;20414;-75
2023/03/10 13:07:18;;;;;;;60.20;56.50;;;;;;;;;;5053670;28;20818;-75
2023/03/10 13:09:47;;;;;;;59.40;55.50;;;;;;;;;;5053607;28;20942;-75
2023/03/10 13:12:17;;;;;;;56.77;53.23;;;;;;;;;;5053316;28;20557;-75
2023/03/10 13:14:45;;;;;;;54.53;51.20;;;;;;;;;;5053991;28;20424;-75
2023/03/10 13:17:22;;;;;;;50.10;47.03;;;;;;;;;;5053849;28;20439;-75
2023/03/10 13:19:57;;;;;;;55.60;52.50;;;;;;;;;;5053779;28;20435;-75
2023/03/10 13:22:24;;;;;;;57.20;54.07;;;;;;;;;;5053157;28;20464;-75
2023/03/10 13:24:57;;;;;;;58.20;55.03;;;;;;;;;;5052909;28;20477;-75
2023/03/10 13:27:29;;;;;;;54.30;51.50;;;;;;;;;;5053501;28;20973;-75
2023/03/10 13:29:56;;;;;;;54.53;51.40;;;;;;;;;;5053793;28;20779;-74
2023/03/10 13:32:25;;;;;;;51.23;48.43;;;;;;;;;;5054357;28;20932;-75
2023/03/10 13:34:53;;;;;;;49.00;46.40;;;;;;;;;;5060301;28;20468;-75
2023/03/10 13:37:19;;;;;;;49.27;46.67;;;;;;;;;;5078877;28;20810;-74
2023/03/10 13:39:46;;;;;;;45.60;43.20;;;;;;;;;;5080207;28;20514;-75
2023/03/10 13:42:19;;;;;;;44.30;42.00;;;;;;;;;;5079481;28;20478;-74
2023/03/10 13:44:46;;;;;;;36.33;34.53;;;;;;;;;;5080501;28;20429;-74
2023/03/10 13:47:15;;;;;;;36.43;34.47;;;;;;;;;;5079999;28;20558;-74
2023/03/10 13:49:45;;;;;;;36.73;34.70;;;;;;;;;;5080186;28;20452;-75
2023/03/10 13:52:13;;;;;;;41.00;38.70;;;;;;;;;;5078601;28;20478;-74
2023/03/10 13:54:41;;;;;;;37.37;35.27;;;;;;;;;;5080253;28;20834;-74
2023/03/10 13:57:10;;;;;;;39.20;37.10;;;;;;;;;;5079062;28;21014;-75
2023/03/10 13:59:37;;;;;;;37.20;35.10;;;;;;;;;;5079662;28;20444;-74
2023/03/10 14:02:05;;;;;;;36.10;34.07;;;;;;;;;;5079342;28;20464;-76
2023/03/10 14:04:44;;;;;;;38.63;36.47;;;;;;;;;;5078808;28;20475;-74
2023/03/10 14:07:12;;;;;;;40.37;38.03;;;;;;;;;;5079857;28;20847;-75
2023/03/10 14:09:39;;;;;;;36.23;34.03;;;;;;;;;;5079786;28;20934;-74
2023/03/10 14:12:06;;;;;;;37.57;35.37;;;;;;;;;;5079367;28;20539;-75
2023/03/10 14:14:35;;;;;;;35.80;33.80;;;;;;;;;;5079941;28;20466;-75
2023/03/10 14:17:02;;;;;;;35.10;33.27;;;;;;;;;;5079036;28;20491;-74
2023/03/10 14:19:53;;;;;;;37.10;35.10;;;;;;;;;;5079607;28;20845;-75
2023/03/10 14:22:23;;;;;;;33.63;31.83;;;;;;;;;;5079066;28;20427;-75
2023/03/10 14:24:50;;;;;;;32.30;30.30;;;;;;;;;;5079921;28;20454;-76